sensor_id;sensor_type;location;lat;lon;timestamp;P1;durP1;ratioP1;P2;durP2;ratioP2
69434;SDS011;56625;54.322;18.582;2023-07-29T00:02:15;12.90;;;7.40;;
69434;SDS011;56625;54.322;18.582;2023-07-29T00:04:43;13.00;;;7.60;;
69434;SDS011;56625;54.322;18.582;2023-07-29T00:07:11;13.90;;;7.20;;
69434;SDS011;56625;54.322;18.582;2023-07-29T00:09:38;12.30;;;7.80;;
69434;SDS011;56625;54.322;18.582;2023-07-29T00:12:07;12.50;;;7.40;;
69434;SDS011;56625;54.322;18.582;2023-07-29T00:14:35;13.20;;;7.10;;
69434;SDS011;56625;54.322;18.582;2023-07-29T00:17:03;13.80;;;7.80;;
69434;SDS011;56625;54.322;18.582;2023-07-29T00:19:31;13.30;;;7.60;;
69434;SDS011;56625;54.322;18.582;2023-07-29T00:22:01;13.40;;;7.40;;
69434;SDS011;56625;54.322;18.582;2023-07-29T00:24:29;12.70;;;7.50;;
69434;SDS011;56625;54.322;18.582;2023-07-29T00:26:57;13.80;;;7.80;;
69434;SDS011;56625;54.322;18.582;2023-07-29T00:29:25;15.60;;;8.30;;
69434;SDS011;56625;54.322;18.582;2023-07-29T00:31:53;14.60;;;8.40;;
69434;SDS011;56625;54.322;18.582;2023-07-29T00:34:21;13.40;;;8.00;;
69434;SDS011;56625;54.322;18.582;2023-07-29T00:36:49;13.50;;;8.20;;
69434;SDS011;56625;54.322;18.582;2023-07-29T00:39:17;14.60;;;8.80;;
69434;SDS011;56625;54.322;18.582;2023-07-29T00:41:46;13.50;;;8.60;;
69434;SDS011;56625;54.322;18.582;2023-07-29T00:44:14;13.70;;;8.40;;
69434;SDS011;56625;54.322;18.582;2023-07-29T00:46:45;14.10;;;8.50;;
69434;SDS011;56625;54.322;18.582;2023-07-29T00:49:15;14.90;;;8.20;;
69434;SDS011;56625;54.322;18.582;2023-07-29T00:51:43;14.90;;;8.80;;
69434;SDS011;56625;54.322;18.582;2023-07-29T00:54:11;13.60;;;8.40;;
69434;SDS011;56625;54.322;18.582;2023-07-29T00:56:40;14.40;;;8.90;;
69434;SDS011;56625;54.322;18.582;2023-07-29T00:59:08;14.00;;;9.10;;
69434;SDS011;56625;54.322;18.582;2023-07-29T01:01:36;13.70;;;8.70;;
69434;SDS011;56625;54.322;18.582;2023-07-29T01:04:04;14.50;;;8.80;;
69434;SDS011;56625;54.322;18.582;2023-07-29T01:06:57;14.90;;;9.00;;
69434;SDS011;56625;54.322;18.582;2023-07-29T01:09:33;13.40;;;8.20;;
69434;SDS011;56625;54.322;18.582;2023-07-29T01:14:58;14.50;;;8.60;;
69434;SDS011;56625;54.322;18.582;2023-07-29T01:17:33;15.10;;;8.80;;
69434;SDS011;56625;54.322;18.582;2023-07-29T01:20:09;14.80;;;8.70;;
69434;SDS011;56625;54.322;18.582;2023-07-29T01:22:41;15.60;;;9.10;;
69434;SDS011;56625;54.322;18.582;2023-07-29T01:25:10;15.00;;;9.10;;
69434;SDS011;56625;54.322;18.582;2023-07-29T01:27:38;15.70;;;9.60;;
69434;SDS011;56625;54.322;18.582;2023-07-29T01:30:06;16.60;;;9.50;;
69434;SDS011;56625;54.322;18.582;2023-07-29T01:35:23;17.70;;;9.50;;
69434;SDS011;56625;54.322;18.582;2023-07-29T01:38:01;15.30;;;9.50;;
69434;SDS011;56625;54.322;18.582;2023-07-29T01:40:33;14.80;;;9.60;;
69434;SDS011;56625;54.322;18.582;2023-07-29T01:43:01;13.50;;;8.20;;
69434;SDS011;56625;54.322;18.582;2023-07-29T01:45:30;14.90;;;8.80;;
69434;SDS011;56625;54.322;18.582;2023-07-29T01:48:07;16.00;;;8.50;;
69434;SDS011;56625;54.322;18.582;2023-07-29T01:50:35;16.50;;;8.90;;
69434;SDS011;56625;54.322;18.582;2023-07-29T01:53:03;14.00;;;8.30;;
69434;SDS011;56625;54.322;18.582;2023-07-29T01:55:31;16.00;;;8.20;;
69434;SDS011;56625;54.322;18.582;2023-07-29T01:57:59;13.90;;;7.80;;
69434;SDS011;56625;54.322;18.582;2023-07-29T02:00:27;14.40;;;7.80;;
69434;SDS011;56625;54.322;18.582;2023-07-29T02:02:55;12.50;;;7.50;;
69434;SDS011;56625;54.322;18.582;2023-07-29T02:05:23;13.00;;;8.10;;
69434;SDS011;56625;54.322;18.582;2023-07-29T02:07:51;13.10;;;7.80;;
69434;SDS011;56625;54.322;18.582;2023-07-29T02:10:19;13.70;;;7.50;;
69434;SDS011;56625;54.322;18.582;2023-07-29T02:12:47;13.90;;;8.10;;
69434;SDS011;56625;54.322;18.582;2023-07-29T02:15:15;14.60;;;8.40;;
69434;SDS011;56625;54.322;18.582;2023-07-29T02:17:43;14.80;;;8.30;;
69434;SDS011;56625;54.322;18.582;2023-07-29T02:20:11;14.70;;;8.00;;
69434;SDS011;56625;54.322;18.582;2023-07-29T02:22:39;14.30;;;8.70;;
69434;SDS011;56625;54.322;18.582;2023-07-29T02:25:07;14.70;;;8.30;;
69434;SDS011;56625;54.322;18.582;2023-07-29T02:27:35;16.10;;;9.10;;
69434;SDS011;56625;54.322;18.582;2023-07-29T02:30:04;13.30;;;8.60;;
69434;SDS011;56625;54.322;18.582;2023-07-29T02:32:32;16.10;;;9.20;;
69434;SDS011;56625;54.322;18.582;2023-07-29T02:35:00;15.00;;;8.60;;
69434;SDS011;56625;54.322;18.582;2023-07-29T02:37:28;14.20;;;8.50;;
69434;SDS011;56625;54.322;18.582;2023-07-29T02:39:56;14.30;;;8.80;;
69434;SDS011;56625;54.322;18.582;2023-07-29T02:42:24;15.00;;;8.70;;
69434;SDS011;56625;54.322;18.582;2023-07-29T02:44:52;15.10;;;8.70;;
69434;SDS011;56625;54.322;18.582;2023-07-29T02:47:20;12.90;;;8.40;;
69434;SDS011;56625;54.322;18.582;2023-07-29T02:49:48;15.60;;;9.00;;
69434;SDS011;56625;54.322;18.582;2023-07-29T02:52:16;15.00;;;9.20;;
69434;SDS011;56625;54.322;18.582;2023-07-29T02:54:44;13.20;;;8.10;;
69434;SDS011;56625;54.322;18.582;2023-07-29T02:57:13;16.00;;;8.80;;
69434;SDS011;56625;54.322;18.582;2023-07-29T02:59:41;15.00;;;9.10;;
69434;SDS011;56625;54.322;18.582;2023-07-29T03:02:09;15.40;;;8.90;;
69434;SDS011;56625;54.322;18.582;2023-07-29T03:04:37;15.00;;;8.70;;
69434;SDS011;56625;54.322;18.582;2023-07-29T03:07:05;14.50;;;8.40;;
69434;SDS011;56625;54.322;18.582;2023-07-29T03:09:33;14.60;;;8.60;;
69434;SDS011;56625;54.322;18.582;2023-07-29T03:12:01;14.50;;;8.70;;
69434;SDS011;56625;54.322;18.582;2023-07-29T03:14:29;15.40;;;8.80;;
69434;SDS011;56625;54.322;18.582;2023-07-29T03:17:02;14.10;;;8.40;;
69434;SDS011;56625;54.322;18.582;2023-07-29T03:19:32;14.00;;;8.00;;
69434;SDS011;56625;54.322;18.582;2023-07-29T03:22:00;16.20;;;9.00;;
69434;SDS011;56625;54.322;18.582;2023-07-29T03:24:28;17.70;;;10.00;;
69434;SDS011;56625;54.322;18.582;2023-07-29T03:26:56;15.20;;;8.50;;
69434;SDS011;56625;54.322;18.582;2023-07-29T03:29:24;17.50;;;8.50;;
69434;SDS011;56625;54.322;18.582;2023-07-29T03:31:52;14.80;;;8.30;;
69434;SDS011;56625;54.322;18.582;2023-07-29T03:34:20;15.80;;;8.80;;
69434;SDS011;56625;54.322;18.582;2023-07-29T03:36:48;14.80;;;8.20;;
69434;SDS011;56625;54.322;18.582;2023-07-29T03:39:15;14.60;;;8.70;;
69434;SDS011;56625;54.322;18.582;2023-07-29T03:41:44;15.00;;;8.70;;
69434;SDS011;56625;54.322;18.582;2023-07-29T03:44:12;14.10;;;8.30;;
69434;SDS011;56625;54.322;18.582;2023-07-29T03:46:40;12.40;;;7.80;;
69434;SDS011;56625;54.322;18.582;2023-07-29T03:49:08;13.50;;;7.70;;
69434;SDS011;56625;54.322;18.582;2023-07-29T03:51:36;11.90;;;7.00;;
69434;SDS011;56625;54.322;18.582;2023-07-29T03:54:04;11.60;;;6.90;;
69434;SDS011;56625;54.322;18.582;2023-07-29T03:56:32;10.40;;;6.00;;
69434;SDS011;56625;54.322;18.582;2023-07-29T03:59:06;11.30;;;6.60;;
69434;SDS011;56625;54.322;18.582;2023-07-29T04:01:34;11.40;;;5.90;;
69434;SDS011;56625;54.322;18.582;2023-07-29T04:04:02;10.50;;;5.60;;
69434;SDS011;56625;54.322;18.582;2023-07-29T04:06:30;10.60;;;5.90;;
69434;SDS011;56625;54.322;18.582;2023-07-29T04:09:00;8.20;;;4.70;;
69434;SDS011;56625;54.322;18.582;2023-07-29T04:11:28;8.70;;;5.10;;
69434;SDS011;56625;54.322;18.582;2023-07-29T04:13:56;8.80;;;4.60;;
69434;SDS011;56625;54.322;18.582;2023-07-29T04:16:24;8.80;;;5.10;;
69434;SDS011;56625;54.322;18.582;2023-07-29T04:18:52;8.30;;;4.90;;
69434;SDS011;56625;54.322;18.582;2023-07-29T04:21:20;9.30;;;4.70;;
69434;SDS011;56625;54.322;18.582;2023-07-29T04:23:47;7.80;;;4.50;;
69434;SDS011;56625;54.322;18.582;2023-07-29T04:26:16;9.20;;;4.80;;
69434;SDS011;56625;54.322;18.582;2023-07-29T04:28:44;8.10;;;4.50;;
69434;SDS011;56625;54.322;18.582;2023-07-29T04:31:11;7.70;;;4.40;;
69434;SDS011;56625;54.322;18.582;2023-07-29T04:33:40;8.10;;;4.40;;
69434;SDS011;56625;54.322;18.582;2023-07-29T04:36:07;7.40;;;4.20;;
69434;SDS011;56625;54.322;18.582;2023-07-29T04:38:37;8.30;;;4.60;;
69434;SDS011;56625;54.322;18.582;2023-07-29T04:41:05;8.00;;;4.40;;
69434;SDS011;56625;54.322;18.582;2023-07-29T04:43:35;8.00;;;4.50;;
69434;SDS011;56625;54.322;18.582;2023-07-29T04:46:06;8.60;;;4.50;;
69434;SDS011;56625;54.322;18.582;2023-07-29T04:48:35;8.40;;;4.10;;
69434;SDS011;56625;54.322;18.582;2023-07-29T04:51:03;6.80;;;3.80;;
69434;SDS011;56625;54.322;18.582;2023-07-29T04:53:31;8.00;;;4.20;;
69434;SDS011;56625;54.322;18.582;2023-07-29T04:55:59;7.70;;;3.90;;
69434;SDS011;56625;54.322;18.582;2023-07-29T04:58:27;8.00;;;4.40;;
69434;SDS011;56625;54.322;18.582;2023-07-29T05:00:57;7.30;;;4.00;;
69434;SDS011;56625;54.322;18.582;2023-07-29T05:03:25;7.50;;;4.10;;
69434;SDS011;56625;54.322;18.582;2023-07-29T05:05:53;7.10;;;3.60;;
69434;SDS011;56625;54.322;18.582;2023-07-29T05:08:23;10.80;;;4.00;;
69434;SDS011;56625;54.322;18.582;2023-07-29T05:10:52;7.60;;;3.90;;
69434;SDS011;56625;54.322;18.582;2023-07-29T05:13:22;8.50;;;3.90;;
69434;SDS011;56625;54.322;18.582;2023-07-29T05:15:50;6.80;;;3.70;;
69434;SDS011;56625;54.322;18.582;2023-07-29T05:18:18;7.30;;;3.60;;
69434;SDS011;56625;54.322;18.582;2023-07-29T05:20:47;8.90;;;3.80;;
69434;SDS011;56625;54.322;18.582;2023-07-29T05:23:15;7.50;;;4.00;;
69434;SDS011;56625;54.322;18.582;2023-07-29T05:25:43;8.40;;;3.80;;
69434;SDS011;56625;54.322;18.582;2023-07-29T05:28:11;7.40;;;3.50;;
69434;SDS011;56625;54.322;18.582;2023-07-29T05:30:39;7.30;;;3.30;;
69434;SDS011;56625;54.322;18.582;2023-07-29T05:33:08;6.80;;;3.70;;
69434;SDS011;56625;54.322;18.582;2023-07-29T05:35:36;8.60;;;4.50;;
69434;SDS011;56625;54.322;18.582;2023-07-29T05:38:04;8.00;;;3.80;;
69434;SDS011;56625;54.322;18.582;2023-07-29T05:40:34;8.00;;;3.50;;
69434;SDS011;56625;54.322;18.582;2023-07-29T05:43:02;7.80;;;3.60;;
69434;SDS011;56625;54.322;18.582;2023-07-29T05:45:31;6.60;;;3.30;;
69434;SDS011;56625;54.322;18.582;2023-07-29T05:47:59;6.70;;;3.20;;
69434;SDS011;56625;54.322;18.582;2023-07-29T05:50:27;8.00;;;3.30;;
69434;SDS011;56625;54.322;18.582;2023-07-29T05:52:55;6.50;;;3.20;;
69434;SDS011;56625;54.322;18.582;2023-07-29T05:55:23;6.90;;;3.10;;
69434;SDS011;56625;54.322;18.582;2023-07-29T05:57:51;6.80;;;3.30;;
69434;SDS011;56625;54.322;18.582;2023-07-29T06:00:19;7.00;;;3.40;;
69434;SDS011;56625;54.322;18.582;2023-07-29T06:02:47;8.00;;;3.50;;
69434;SDS011;56625;54.322;18.582;2023-07-29T06:05:15;6.10;;;2.80;;
69434;SDS011;56625;54.322;18.582;2023-07-29T06:07:43;6.20;;;3.10;;
69434;SDS011;56625;54.322;18.582;2023-07-29T06:10:13;6.10;;;3.30;;
69434;SDS011;56625;54.322;18.582;2023-07-29T06:12:47;7.30;;;3.20;;
69434;SDS011;56625;54.322;18.582;2023-07-29T06:15:15;6.90;;;3.10;;
69434;SDS011;56625;54.322;18.582;2023-07-29T06:17:43;6.00;;;3.00;;
69434;SDS011;56625;54.322;18.582;2023-07-29T06:20:11;6.60;;;3.00;;
69434;SDS011;56625;54.322;18.582;2023-07-29T06:22:41;6.50;;;3.20;;
69434;SDS011;56625;54.322;18.582;2023-07-29T06:25:13;6.50;;;2.80;;
69434;SDS011;56625;54.322;18.582;2023-07-29T06:28:15;6.80;;;3.00;;
69434;SDS011;56625;54.322;18.582;2023-07-29T06:30:43;6.10;;;3.20;;
69434;SDS011;56625;54.322;18.582;2023-07-29T06:33:12;6.10;;;2.50;;
69434;SDS011;56625;54.322;18.582;2023-07-29T06:35:43;6.80;;;2.70;;
69434;SDS011;56625;54.322;18.582;2023-07-29T06:38:11;7.20;;;2.50;;
69434;SDS011;56625;54.322;18.582;2023-07-29T06:40:39;5.80;;;2.30;;
69434;SDS011;56625;54.322;18.582;2023-07-29T06:43:06;6.10;;;2.50;;
69434;SDS011;56625;54.322;18.582;2023-07-29T06:45:34;6.90;;;2.50;;
69434;SDS011;56625;54.322;18.582;2023-07-29T06:48:02;6.00;;;2.40;;
69434;SDS011;56625;54.322;18.582;2023-07-29T06:50:31;5.80;;;2.30;;
69434;SDS011;56625;54.322;18.582;2023-07-29T06:52:58;5.80;;;2.10;;
69434;SDS011;56625;54.322;18.582;2023-07-29T06:55:26;6.30;;;2.10;;
69434;SDS011;56625;54.322;18.582;2023-07-29T06:57:54;5.60;;;2.40;;
69434;SDS011;56625;54.322;18.582;2023-07-29T07:00:22;5.70;;;2.20;;
69434;SDS011;56625;54.322;18.582;2023-07-29T07:02:50;5.40;;;2.20;;
69434;SDS011;56625;54.322;18.582;2023-07-29T07:05:18;7.10;;;2.40;;
69434;SDS011;56625;54.322;18.582;2023-07-29T07:07:46;7.20;;;1.80;;
69434;SDS011;56625;54.322;18.582;2023-07-29T07:10:15;5.60;;;1.90;;
69434;SDS011;56625;54.322;18.582;2023-07-29T07:12:43;5.90;;;2.10;;
69434;SDS011;56625;54.322;18.582;2023-07-29T07:15:11;7.30;;;2.30;;
69434;SDS011;56625;54.322;18.582;2023-07-29T07:17:39;5.70;;;2.10;;
69434;SDS011;56625;54.322;18.582;2023-07-29T07:20:07;6.90;;;2.20;;
69434;SDS011;56625;54.322;18.582;2023-07-29T07:22:36;7.40;;;2.30;;
69434;SDS011;56625;54.322;18.582;2023-07-29T07:36:45;6.10;;;2.00;;
69434;SDS011;56625;54.322;18.582;2023-07-29T07:39:40;6.30;;;2.10;;
69434;SDS011;56625;54.322;18.582;2023-07-29T07:42:34;5.70;;;2.00;;
69434;SDS011;56625;54.322;18.582;2023-07-29T07:45:32;6.10;;;2.00;;
69434;SDS011;56625;54.322;18.582;2023-07-29T07:48:27;6.10;;;2.10;;
69434;SDS011;56625;54.322;18.582;2023-07-29T07:51:22;6.90;;;2.00;;
69434;SDS011;56625;54.322;18.582;2023-07-29T07:54:18;6.00;;;2.00;;
69434;SDS011;56625;54.322;18.582;2023-07-29T07:57:12;5.40;;;1.70;;
69434;SDS011;56625;54.322;18.582;2023-07-29T08:00:08;4.80;;;1.70;;
69434;SDS011;56625;54.322;18.582;2023-07-29T08:03:05;4.40;;;1.30;;
69434;SDS011;56625;54.322;18.582;2023-07-29T08:06:00;3.90;;;1.30;;
69434;SDS011;56625;54.322;18.582;2023-07-29T08:08:55;4.70;;;1.40;;
69434;SDS011;56625;54.322;18.582;2023-07-29T08:11:50;6.20;;;2.00;;
69434;SDS011;56625;54.322;18.582;2023-07-29T08:14:45;5.30;;;1.80;;
69434;SDS011;56625;54.322;18.582;2023-07-29T08:17:41;4.90;;;1.60;;
69434;SDS011;56625;54.322;18.582;2023-07-29T08:20:36;6.40;;;1.80;;
69434;SDS011;56625;54.322;18.582;2023-07-29T08:23:35;5.20;;;1.60;;
69434;SDS011;56625;54.322;18.582;2023-07-29T08:26:31;4.50;;;1.80;;
69434;SDS011;56625;54.322;18.582;2023-07-29T08:29:25;4.90;;;1.60;;
69434;SDS011;56625;54.322;18.582;2023-07-29T08:32:07;6.10;;;1.60;;
69434;SDS011;56625;54.322;18.582;2023-07-29T08:34:48;5.70;;;1.80;;
69434;SDS011;56625;54.322;18.582;2023-07-29T08:37:36;4.30;;;1.40;;
69434;SDS011;56625;54.322;18.582;2023-07-29T08:40:31;4.70;;;1.60;;
69434;SDS011;56625;54.322;18.582;2023-07-29T08:43:29;5.70;;;1.70;;
69434;SDS011;56625;54.322;18.582;2023-07-29T08:46:26;4.90;;;1.60;;
69434;SDS011;56625;54.322;18.582;2023-07-29T08:49:23;4.40;;;1.60;;
69434;SDS011;56625;54.322;18.582;2023-07-29T08:52:18;5.50;;;1.70;;
69434;SDS011;56625;54.322;18.582;2023-07-29T08:55:14;5.50;;;1.70;;
69434;SDS011;56625;54.322;18.582;2023-07-29T08:58:09;4.00;;;1.40;;
69434;SDS011;56625;54.322;18.582;2023-07-29T09:00:51;4.70;;;1.50;;
69434;SDS011;56625;54.322;18.582;2023-07-29T09:03:39;4.30;;;1.30;;
69434;SDS011;56625;54.322;18.582;2023-07-29T09:06:14;5.50;;;1.40;;
69434;SDS011;56625;54.322;18.582;2023-07-29T09:09:03;5.40;;;1.60;;
69434;SDS011;56625;54.322;18.582;2023-07-29T09:11:37;5.10;;;1.90;;
69434;SDS011;56625;54.322;18.582;2023-07-29T09:14:18;4.70;;;1.50;;
69434;SDS011;56625;54.322;18.582;2023-07-29T09:17:00;4.30;;;1.20;;
69434;SDS011;56625;54.322;18.582;2023-07-29T09:19:41;3.80;;;1.10;;
69434;SDS011;56625;54.322;18.582;2023-07-29T09:22:22;5.70;;;1.60;;
69434;SDS011;56625;54.322;18.582;2023-07-29T09:25:03;5.80;;;1.30;;
69434;SDS011;56625;54.322;18.582;2023-07-29T09:27:44;5.00;;;1.50;;
69434;SDS011;56625;54.322;18.582;2023-07-29T09:30:28;5.00;;;1.50;;
69434;SDS011;56625;54.322;18.582;2023-07-29T09:33:09;4.90;;;1.50;;
69434;SDS011;56625;54.322;18.582;2023-07-29T09:35:44;4.30;;;1.40;;
69434;SDS011;56625;54.322;18.582;2023-07-29T09:38:39;3.70;;;1.30;;
69434;SDS011;56625;54.322;18.582;2023-07-29T09:41:34;5.00;;;1.40;;
69434;SDS011;56625;54.322;18.582;2023-07-29T09:44:10;5.70;;;1.20;;
69434;SDS011;56625;54.322;18.582;2023-07-29T09:46:58;6.40;;;1.30;;
69434;SDS011;56625;54.322;18.582;2023-07-29T09:49:35;5.00;;;1.50;;
69434;SDS011;56625;54.322;18.582;2023-07-29T09:52:24;4.40;;;1.40;;
69434;SDS011;56625;54.322;18.582;2023-07-29T09:54:59;4.90;;;1.60;;
69434;SDS011;56625;54.322;18.582;2023-07-29T09:57:53;5.70;;;1.50;;
69434;SDS011;56625;54.322;18.582;2023-07-29T10:00:31;4.50;;;1.70;;
69434;SDS011;56625;54.322;18.582;2023-07-29T10:03:21;4.40;;;1.50;;
69434;SDS011;56625;54.322;18.582;2023-07-29T10:06:00;5.10;;;1.70;;
69434;SDS011;56625;54.322;18.582;2023-07-29T10:08:50;4.60;;;1.60;;
69434;SDS011;56625;54.322;18.582;2023-07-29T10:11:26;4.80;;;1.50;;
69434;SDS011;56625;54.322;18.582;2023-07-29T10:14:15;5.80;;;1.80;;
69434;SDS011;56625;54.322;18.582;2023-07-29T10:16:51;4.30;;;1.60;;
69434;SDS011;56625;54.322;18.582;2023-07-29T10:19:40;4.90;;;1.60;;
69434;SDS011;56625;54.322;18.582;2023-07-29T10:22:17;6.70;;;1.60;;
69434;SDS011;56625;54.322;18.582;2023-07-29T10:25:10;4.30;;;1.40;;
69434;SDS011;56625;54.322;18.582;2023-07-29T10:27:54;4.40;;;1.60;;
69434;SDS011;56625;54.322;18.582;2023-07-29T10:30:44;4.20;;;1.60;;
69434;SDS011;56625;54.322;18.582;2023-07-29T10:33:19;5.40;;;1.60;;
69434;SDS011;56625;54.322;18.582;2023-07-29T10:36:08;5.20;;;1.60;;
69434;SDS011;56625;54.322;18.582;2023-07-29T10:38:57;4.90;;;1.80;;
69434;SDS011;56625;54.322;18.582;2023-07-29T10:41:58;4.50;;;1.60;;
69434;SDS011;56625;54.322;18.582;2023-07-29T10:47:29;4.50;;;1.60;;
69434;SDS011;56625;54.322;18.582;2023-07-29T10:50:20;5.10;;;1.60;;
69434;SDS011;56625;54.322;18.582;2023-07-29T10:53:02;4.20;;;1.30;;
69434;SDS011;56625;54.322;18.582;2023-07-29T10:55:43;6.20;;;2.10;;
69434;SDS011;56625;54.322;18.582;2023-07-29T10:58:24;5.20;;;2.00;;
69434;SDS011;56625;54.322;18.582;2023-07-29T11:01:26;5.10;;;1.90;;
69434;SDS011;56625;54.322;18.582;2023-07-29T11:04:22;5.00;;;1.80;;
69434;SDS011;56625;54.322;18.582;2023-07-29T11:12:45;5.00;;;1.80;;
69434;SDS011;56625;54.322;18.582;2023-07-29T11:15:27;4.60;;;1.70;;
69434;SDS011;56625;54.322;18.582;2023-07-29T11:18:16;4.00;;;1.40;;
69434;SDS011;56625;54.322;18.582;2023-07-29T11:20:54;4.90;;;1.70;;
69434;SDS011;56625;54.322;18.582;2023-07-29T11:23:42;5.10;;;1.50;;
69434;SDS011;56625;54.322;18.582;2023-07-29T11:26:16;4.80;;;1.60;;
69434;SDS011;56625;54.322;18.582;2023-07-29T11:29:04;4.10;;;1.60;;
69434;SDS011;56625;54.322;18.582;2023-07-29T11:31:40;5.80;;;1.70;;
69434;SDS011;56625;54.322;18.582;2023-07-29T11:34:32;4.70;;;1.90;;
69434;SDS011;56625;54.322;18.582;2023-07-29T11:37:20;4.60;;;1.50;;
69434;SDS011;56625;54.322;18.582;2023-07-29T11:40:19;5.30;;;1.50;;
69434;SDS011;56625;54.322;18.582;2023-07-29T11:43:17;4.60;;;1.80;;
69434;SDS011;56625;54.322;18.582;2023-07-29T11:46:21;4.80;;;1.80;;
69434;SDS011;56625;54.322;18.582;2023-07-29T11:49:17;5.10;;;1.80;;
69434;SDS011;56625;54.322;18.582;2023-07-29T11:52:12;5.60;;;1.60;;
69434;SDS011;56625;54.322;18.582;2023-07-29T11:55:07;4.40;;;1.70;;
69434;SDS011;56625;54.322;18.582;2023-07-29T11:58:02;4.70;;;1.80;;
69434;SDS011;56625;54.322;18.582;2023-07-29T12:00:57;4.40;;;1.60;;
69434;SDS011;56625;54.322;18.582;2023-07-29T12:03:52;5.00;;;1.60;;
69434;SDS011;56625;54.322;18.582;2023-07-29T12:06:26;5.00;;;1.90;;
69434;SDS011;56625;54.322;18.582;2023-07-29T12:09:16;4.00;;;1.50;;
69434;SDS011;56625;54.322;18.582;2023-07-29T12:11:50;5.00;;;1.70;;
69434;SDS011;56625;54.322;18.582;2023-07-29T12:14:28;4.50;;;1.70;;
69434;SDS011;56625;54.322;18.582;2023-07-29T12:17:09;5.10;;;1.80;;
69434;SDS011;56625;54.322;18.582;2023-07-29T12:19:43;4.50;;;1.70;;
69434;SDS011;56625;54.322;18.582;2023-07-29T12:22:19;4.50;;;1.20;;
69434;SDS011;56625;54.322;18.582;2023-07-29T12:25:00;6.40;;;1.90;;
69434;SDS011;56625;54.322;18.582;2023-07-29T12:27:35;5.00;;;1.60;;
69434;SDS011;56625;54.322;18.582;2023-07-29T12:30:10;4.50;;;1.60;;
69434;SDS011;56625;54.322;18.582;2023-07-29T12:32:51;5.00;;;1.70;;
69434;SDS011;56625;54.322;18.582;2023-07-29T12:35:36;5.40;;;1.70;;
69434;SDS011;56625;54.322;18.582;2023-07-29T12:38:21;4.80;;;1.40;;
69434;SDS011;56625;54.322;18.582;2023-07-29T12:41:17;4.10;;;1.50;;
69434;SDS011;56625;54.322;18.582;2023-07-29T12:44:12;4.90;;;1.70;;
69434;SDS011;56625;54.322;18.582;2023-07-29T12:47:07;5.30;;;2.00;;
69434;SDS011;56625;54.322;18.582;2023-07-29T12:50:02;6.00;;;1.90;;
69434;SDS011;56625;54.322;18.582;2023-07-29T12:52:57;4.40;;;1.70;;
69434;SDS011;56625;54.322;18.582;2023-07-29T12:55:52;5.00;;;1.90;;
69434;SDS011;56625;54.322;18.582;2023-07-29T12:58:49;5.40;;;2.00;;
69434;SDS011;56625;54.322;18.582;2023-07-29T13:01:44;5.10;;;2.00;;
69434;SDS011;56625;54.322;18.582;2023-07-29T13:04:39;5.10;;;2.10;;
69434;SDS011;56625;54.322;18.582;2023-07-29T13:07:34;4.40;;;1.70;;
69434;SDS011;56625;54.322;18.582;2023-07-29T13:10:16;6.30;;;2.00;;
69434;SDS011;56625;54.322;18.582;2023-07-29T13:12:57;4.00;;;1.70;;
69434;SDS011;56625;54.322;18.582;2023-07-29T13:15:38;4.30;;;1.90;;
69434;SDS011;56625;54.322;18.582;2023-07-29T13:18:19;6.60;;;2.20;;
69434;SDS011;56625;54.322;18.582;2023-07-29T13:21:00;5.30;;;1.70;;
69434;SDS011;56625;54.322;18.582;2023-07-29T13:23:41;4.90;;;1.80;;
69434;SDS011;56625;54.322;18.582;2023-07-29T13:26:22;5.60;;;1.90;;
69434;SDS011;56625;54.322;18.582;2023-07-29T13:29:03;5.30;;;1.50;;
69434;SDS011;56625;54.322;18.582;2023-07-29T13:31:45;4.70;;;1.70;;
69434;SDS011;56625;54.322;18.582;2023-07-29T13:34:26;4.00;;;1.50;;
69434;SDS011;56625;54.322;18.582;2023-07-29T13:37:09;4.40;;;1.70;;
69434;SDS011;56625;54.322;18.582;2023-07-29T13:40:04;4.60;;;1.60;;
69434;SDS011;56625;54.322;18.582;2023-07-29T13:43:00;5.00;;;1.70;;
69434;SDS011;56625;54.322;18.582;2023-07-29T13:45:55;4.80;;;1.60;;
69434;SDS011;56625;54.322;18.582;2023-07-29T13:48:50;6.00;;;1.70;;
69434;SDS011;56625;54.322;18.582;2023-07-29T13:51:45;4.90;;;1.60;;
69434;SDS011;56625;54.322;18.582;2023-07-29T13:54:40;5.80;;;2.00;;
69434;SDS011;56625;54.322;18.582;2023-07-29T13:57:35;5.10;;;1.50;;
69434;SDS011;56625;54.322;18.582;2023-07-29T14:00:10;4.20;;;1.70;;
69434;SDS011;56625;54.322;18.582;2023-07-29T14:02:58;4.50;;;1.60;;
69434;SDS011;56625;54.322;18.582;2023-07-29T14:05:53;4.60;;;1.80;;
69434;SDS011;56625;54.322;18.582;2023-07-29T14:08:27;4.80;;;1.50;;
69434;SDS011;56625;54.322;18.582;2023-07-29T14:11:16;5.00;;;1.60;;
69434;SDS011;56625;54.322;18.582;2023-07-29T14:13:57;3.70;;;1.40;;
69434;SDS011;56625;54.322;18.582;2023-07-29T14:16:52;5.20;;;1.30;;
69434;SDS011;56625;54.322;18.582;2023-07-29T14:19:47;4.40;;;1.70;;
69434;SDS011;56625;54.322;18.582;2023-07-29T14:22:42;4.90;;;1.60;;
69434;SDS011;56625;54.322;18.582;2023-07-29T14:25:37;4.10;;;1.60;;
69434;SDS011;56625;54.322;18.582;2023-07-29T14:28:13;4.20;;;1.50;;
69434;SDS011;56625;54.322;18.582;2023-07-29T14:31:02;3.70;;;1.40;;
69434;SDS011;56625;54.322;18.582;2023-07-29T14:33:36;3.70;;;1.50;;
69434;SDS011;56625;54.322;18.582;2023-07-29T14:36:24;4.20;;;1.50;;
69434;SDS011;56625;54.322;18.582;2023-07-29T14:39:02;4.40;;;1.60;;
69434;SDS011;56625;54.322;18.582;2023-07-29T14:41:51;5.00;;;1.70;;
69434;SDS011;56625;54.322;18.582;2023-07-29T14:44:32;5.40;;;1.60;;
69434;SDS011;56625;54.322;18.582;2023-07-29T14:47:27;3.50;;;1.30;;
69434;SDS011;56625;54.322;18.582;2023-07-29T14:50:22;4.00;;;1.70;;
69434;SDS011;56625;54.322;18.582;2023-07-29T14:53:17;4.60;;;1.60;;
69434;SDS011;56625;54.322;18.582;2023-07-29T14:56:13;4.20;;;1.70;;
69434;SDS011;56625;54.322;18.582;2023-07-29T14:58:50;4.70;;;1.60;;
69434;SDS011;56625;54.322;18.582;2023-07-29T15:01:38;4.30;;;1.50;;
69434;SDS011;56625;54.322;18.582;2023-07-29T15:04:12;4.00;;;1.50;;
69434;SDS011;56625;54.322;18.582;2023-07-29T15:07:00;4.00;;;1.50;;
69434;SDS011;56625;54.322;18.582;2023-07-29T15:09:34;4.50;;;1.70;;
69434;SDS011;56625;54.322;18.582;2023-07-29T15:12:22;5.10;;;1.80;;
69434;SDS011;56625;54.322;18.582;2023-07-29T15:14:56;4.40;;;1.70;;
69434;SDS011;56625;54.322;18.582;2023-07-29T15:17:44;4.30;;;1.50;;
69434;SDS011;56625;54.322;18.582;2023-07-29T15:20:18;6.20;;;1.50;;
69434;SDS011;56625;54.322;18.582;2023-07-29T15:23:06;4.90;;;1.50;;
69434;SDS011;56625;54.322;18.582;2023-07-29T15:25:40;4.60;;;1.70;;
69434;SDS011;56625;54.322;18.582;2023-07-29T15:28:36;4.70;;;1.60;;
69434;SDS011;56625;54.322;18.582;2023-07-29T15:31:31;5.00;;;1.70;;
69434;SDS011;56625;54.322;18.582;2023-07-29T15:34:26;4.60;;;1.70;;
69434;SDS011;56625;54.322;18.582;2023-07-29T15:37:21;4.70;;;1.80;;
69434;SDS011;56625;54.322;18.582;2023-07-29T15:40:16;4.00;;;1.60;;
69434;SDS011;56625;54.322;18.582;2023-07-29T15:43:11;4.20;;;1.70;;
69434;SDS011;56625;54.322;18.582;2023-07-29T15:46:06;4.10;;;1.40;;
69434;SDS011;56625;54.322;18.582;2023-07-29T15:49:01;5.40;;;1.60;;
69434;SDS011;56625;54.322;18.582;2023-07-29T15:51:35;6.30;;;1.60;;
69434;SDS011;56625;54.322;18.582;2023-07-29T15:54:23;4.60;;;1.60;;
69434;SDS011;56625;54.322;18.582;2023-07-29T15:56:57;4.00;;;1.70;;
69434;SDS011;56625;54.322;18.582;2023-07-29T15:59:45;3.60;;;1.50;;
69434;SDS011;56625;54.322;18.582;2023-07-29T16:02:19;4.40;;;1.60;;